Time;durP1;ratioP1;P1;durP2;ratioP2;P2;SDS_P1;SDS_P2;PMS_P1;PMS_P2;Temp;Humidity;BMP_temperature;BMP_pressure;BME280_temperature;BME280_humidity;BME280_pressure;Samples;Min_cycle;Max_cycle;Signal;HPM_P1;HPM_P2
2024/02/02 00:03:39;;;;;;;5.20;3.70;;;;;;;2.82;75.31;98741.02;102739;1289;600197;-25
2024/02/02 00:06:08;;;;;;;9.60;4.80;;;;;;;3.17;74.17;98733.27;104839;1267;61274;-26
2024/02/02 00:08:36;;;;;;;6.20;3.60;;;;;;;3.47;72.63;98732.44;105102;1264;61058;-27
2024/02/02 00:11:04;;;;;;;8.70;4.70;;;;;;;3.28;73.05;98732.10;104849;1270;71015;-28
2024/02/02 00:13:32;;;;;;;8.60;4.30;;;;;;;3.06;73.70;98714.84;105613;1257;74712;-28
2024/02/02 00:23:37;;;;;;;7.60;4.00;;;;;;;3.39;71.89;98706.48;102726;1293;600152;-26
2024/02/02 00:26:05;;;;;;;6.30;3.80;;;;;;;3.08;73.17;98722.27;105026;1269;61156;-28
2024/02/02 00:28:32;;;;;;;5.70;3.70;;;;;;;3.11;73.03;98723.48;104833;1267;61054;-28
2024/02/02 00:31:00;;;;;;;6.70;3.80;;;;;;;2.96;73.71;98716.20;104851;1270;72173;-28
2024/02/02 00:33:29;;;;;;;6.10;4.20;;;;;;;2.86;74.54;98719.55;104851;1266;74301;-28
2024/02/02 00:35:57;;;;;;;6.00;4.10;;;;;;;3.01;74.08;98717.85;105244;1267;71486;-28
2024/02/02 00:46:01;;;;;;;8.20;4.10;;;;;;;2.98;73.95;98722.27;102704;1290;600296;-25
2024/02/02 00:48:29;;;;;;;7.50;4.60;;;;;;;2.84;74.74;98719.45;105060;1265;61051;-27
2024/02/02 00:58:37;;;;;;;7.80;4.60;;;;;;;2.95;73.54;98734.80;102738;1290;599420;-27
2024/02/02 01:01:05;;;;;;;9.30;4.80;;;;;;;2.72;74.24;98732.63;105452;1263;61179;-28
2024/02/02 01:03:37;;;;;;;8.20;4.20;;;;;;;2.73;74.38;98724.50;105534;1257;61126;-28
2024/02/02 01:13:50;;;;;;;9.70;5.10;;;;;;;2.93;73.62;98738.19;102759;1292;600170;-25
2024/02/02 01:16:18;;;;;;;8.50;4.30;;;;;;;2.73;74.36;98740.80;104806;1269;61261;-25
2024/02/02 01:26:26;;;;;;;7.50;4.70;;;;;;;2.91;73.29;98727.98;102692;1292;599357;-27
2024/02/02 01:28:54;;;;;;;9.80;4.80;;;;;;;2.61;74.18;98726.84;104815;1271;61125;-28
2024/02/02 01:38:57;;;;;;;9.40;3.40;;;;;;;2.93;71.74;98715.02;102924;1290;600255;-27
2024/02/02 01:41:25;;;;;;;12.10;4.50;;;;;;;2.91;71.52;98744.09;105094;1264;61177;-27
2024/02/02 01:43:53;;;;;;;6.90;3.90;;;;;;;2.64;72.52;98739.20;104891;1264;61263;-27
2024/02/02 01:46:22;;;;;;;7.00;3.40;;;;;;;2.36;73.35;98745.35;105054;1269;72180;-27
2024/02/02 01:48:50;;;;;;;9.40;3.80;;;;;;;2.35;73.20;98739.91;104901;1264;74422;-27
2024/02/02 01:51:18;;;;;;;7.40;3.50;;;;;;;2.33;73.33;98742.23;104870;1264;71427;-27
2024/02/02 01:53:46;;;;;;;7.40;2.90;;;;;;;2.67;71.74;98739.73;105185;1264;189531;-27
2024/02/02 02:03:51;;;;;;;7.60;4.00;;;;;;;2.44;73.43;98762.38;102655;1292;600066;-25
2024/02/02 02:13:56;;;;;;;6.30;3.10;;;;;;;2.62;72.41;98769.48;102672;1291;600187;-25
2024/02/02 02:16:24;;;;;;;6.60;4.00;;;;;;;2.43;72.97;98769.80;104884;1270;61184;-25
2024/02/02 02:18:52;;;;;;;6.50;3.30;;;;;;;1.99;74.99;98764.35;104810;1266;61127;-27
2024/02/02 02:21:29;;;;;;;5.80;3.40;;;;;;;2.39;74.18;98773.25;104735;1268;70958;-28
2024/02/02 02:23:57;;;;;;;8.70;3.80;;;;;;;2.61;73.12;98768.03;104869;1270;74341;-28
2024/02/02 02:26:27;;;;;;;7.00;4.30;;;;;;;2.65;73.04;98772.95;104672;1270;200820;-29
2024/02/02 02:41:20;;;;;;;7.70;3.90;;;;;;;2.97;72.58;98778.26;102737;1291;599036;-26
2024/02/02 02:51:26;;;;;;;5.80;3.60;;;;;;;2.48;74.38;98794.02;102715;1290;600193;-27
2024/02/02 02:53:54;;;;;;;5.40;3.20;;;;;;;2.90;73.23;98791.52;104822;1272;61183;-28
2024/02/02 03:02:59;;;;;;;7.30;3.10;;;;;;;2.75;73.18;98807.21;102729;1294;600091;-27
2024/02/02 03:05:28;;;;;;;8.80;3.20;;;;;;;2.54;73.93;98814.63;104892;1270;61138;-28
2024/02/02 03:07:56;;;;;;;7.00;3.70;;;;;;;2.41;74.21;98808.48;104800;1269;61251;-28
2024/02/02 03:10:25;;;;;;;7.70;3.70;;;;;;;2.43;74.29;98809.89;104841;1264;69933;-28
2024/02/02 03:12:53;;;;;;;8.40;4.00;;;;;;;2.77;73.03;98811.89;104892;1263;74453;-28
2024/02/02 03:15:21;;;;;;;8.40;3.60;;;;;;;2.83;72.28;98809.38;104869;1269;72628;-28
2024/02/02 03:17:50;;;;;;;10.60;4.10;;;;;;;2.52;73.24;98807.52;105052;1263;198922;-28
2024/02/02 03:20:17;;;;;;;14.50;4.30;;;;;;;2.51;73.21;98815.33;105042;1264;61169;-28
2024/02/02 03:30:23;;;;;;;7.90;3.20;;;;;;;2.64;72.31;98820.96;102712;1296;600158;-26
2024/02/02 03:32:52;;;;;;;13.20;3.30;;;;;;;2.64;71.75;98821.33;104883;1268;61237;-27
2024/02/02 03:35:20;;;;;;;9.70;4.20;;;;;;;2.57;72.02;98817.78;104811;1271;61167;-28
2024/02/02 03:37:48;;;;;;;9.60;3.60;;;;;;;2.42;72.48;98819.92;104700;1266;72277;-28
2024/02/02 03:40:16;;;;;;;10.40;3.60;;;;;;;2.21;73.23;98820.95;105505;1267;74439;-28
2024/02/02 03:44:05;;;;;;;6.90;3.00;;;;;;;2.08;74.02;98825.88;102677;1292;600138;-27
2024/02/02 03:46:33;;;;;;;8.10;3.00;;;;;;;2.52;72.62;98827.92;105161;1263;61304;-28
2024/02/02 03:49:01;;;;;;;7.30;3.30;;;;;;;2.68;71.70;98831.06;105205;1262;61136;-28
2024/02/02 03:51:29;;;;;;;5.30;2.90;;;;;;;2.52;71.97;98830.48;105157;1264;72248;-28
2024/02/02 03:53:57;;;;;;;9.30;3.30;;;;;;;2.33;72.36;98832.00;104954;1268;73245;-28
2024/02/02 03:56:25;;;;;;;8.50;3.80;;;;;;;2.20;72.93;98833.35;105130;1265;71660;-28
2024/02/02 03:58:53;;;;;;;8.80;3.60;;;;;;;1.89;74.18;98837.44;105011;1260;195880;-28
2024/02/02 04:01:21;;;;;;;8.60;3.50;;;;;;;1.93;74.40;98837.91;105202;1259;61158;-28
2024/02/02 04:03:49;;;;;;;8.00;2.80;;;;;;;2.57;72.04;98847.54;105474;1262;72170;-28
2024/02/02 04:06:17;;;;;;;8.90;3.60;;;;;;;2.49;71.56;98845.55;105539;1262;73150;-28
2024/02/02 04:08:45;;;;;;;5.20;2.90;;;;;;;2.39;71.87;98848.82;105649;1256;72698;-28
2024/02/02 04:11:13;;;;;;;5.20;2.50;;;;;;;2.08;72.84;98853.80;105602;1257;61296;-28
2024/02/02 04:13:42;;;;;;;7.40;3.10;;;;;;;1.89;73.46;98858.66;105508;1256;61040;-28
2024/02/02 04:16:10;;;;;;;6.50;3.10;;;;;;;1.69;74.46;98854.35;105658;1252;71748;-28
2024/02/02 04:18:37;;;;;;;9.10;2.60;;;;;;;2.05;72.98;98855.66;105746;1255;74297;-28
2024/02/02 04:21:05;;;;;;;7.20;2.50;;;;;;;2.35;71.71;98865.14;105766;1253;72613;-28
2024/02/02 04:31:10;;;;;;;18.60;4.70;;;;;;;1.66;73.64;98866.60;102632;1297;600001;-28
2024/02/02 04:33:38;;;;;;;6.00;2.60;;;;;;;1.82;73.19;98878.00;104737;1272;61187;-28
2024/02/02 04:36:07;;;;;;;8.80;2.70;;;;;;;2.33;71.08;98878.26;104740;1269;61050;-28
2024/02/02 04:38:35;;;;;;;10.90;2.90;;;;;;;2.21;71.12;98881.10;104783;1273;72249;-28
2024/02/02 04:41:03;;;;;;;8.50;3.10;;;;;;;2.05;71.27;98877.74;104787;1272;74310;-28
2024/02/02 04:43:30;;;;;;;8.40;2.80;;;;;;;1.91;71.76;98871.71;104708;1274;72694;-28
2024/02/02 04:45:58;;;;;;;6.00;2.10;;;;;;;1.79;72.06;98877.09;104683;1270;183516;-28
2024/02/02 04:48:26;;;;;;;12.40;2.70;;;;;;;1.61;72.77;98879.65;104880;1270;61166;-28
2024/02/02 04:58:31;;;;;;;10.00;2.90;;;;;;;2.02;70.86;98890.19;102671;1294;600049;-26
2024/02/02 05:00:59;;;;;;;9.10;3.20;;;;;;;1.78;71.78;98888.96;104786;1266;61158;-27
2024/02/02 05:03:27;;;;;;;8.50;3.20;;;;;;;1.60;72.34;98889.98;104817;1271;61105;-28
2024/02/02 05:05:55;;;;;;;12.80;3.80;;;;;;;1.34;73.59;98894.59;104796;1265;71002;-28
2024/02/02 05:08:23;;;;;;;3.50;1.40;;;;;;;1.61;72.85;98895.23;104824;1272;74391;-28
2024/02/02 05:10:51;;;;;;;7.30;3.00;;;;;;;2.11;70.88;98902.98;104846;1266;72693;-28
2024/02/02 05:19:57;;;;;;;8.90;3.00;;;;;;;1.49;72.66;98899.70;102743;1293;600228;-26
2024/02/02 05:22:25;;;;;;;5.80;2.10;;;;;;;1.28;73.55;98903.58;105038;1270;61196;-27
2024/02/02 05:32:33;;;;;;;9.40;2.90;;;;;;;1.86;71.24;98916.81;102699;1292;599076;-28
2024/02/02 05:35:01;;;;;;;5.90;1.90;;;;;;;1.66;71.95;98917.60;104786;1269;61157;-27
2024/02/02 05:37:29;;;;;;;6.10;2.50;;;;;;;1.61;72.18;98922.98;104817;1271;61228;-28
2024/02/02 05:39:57;;;;;;;6.70;2.50;;;;;;;1.43;72.77;98922.40;104819;1272;72249;-27
2024/02/02 05:42:25;;;;;;;10.10;2.70;;;;;;;1.22;73.88;98925.06;104809;1267;73106;-27
2024/02/02 05:44:53;;;;;;;8.70;3.00;;;;;;;1.73;72.59;98936.09;104792;1267;70400;-27
2024/02/02 05:47:21;;;;;;;9.00;2.60;;;;;;;1.96;71.24;98937.21;104750;1269;144227;-27
2024/02/02 05:49:49;;;;;;;6.30;2.50;;;;;;;1.94;71.04;98938.55;105039;1268;61125;-27
2024/02/02 05:59:53;;;;;;;5.50;2.00;;;;;;;1.39;72.94;98954.77;103088;1289;600252;-27
2024/02/02 06:02:21;;;;;;;4.80;1.60;;;;;;;1.66;72.50;98962.95;105020;1267;61078;-28
2024/02/02 06:04:50;;;;;;;3.90;1.50;;;;;;;1.98;71.03;98961.15;104867;1269;61205;-28
2024/02/02 06:14:58;;;;;;;5.20;1.70;;;;;;;1.41;73.57;98974.98;102752;1289;599464;-26
2024/02/02 06:17:26;;;;;;;3.70;1.60;;;;;;;1.20;74.73;98976.80;105038;1265;61152;-27
2024/02/02 06:27:34;;;;;;;2.60;1.40;;;;;;;1.89;72.02;98987.05;102755;1292;599218;-27
2024/02/02 06:30:03;;;;;;;7.10;2.40;;;;;;;1.85;72.14;98991.52;104883;1272;61187;-26
2024/02/02 06:32:31;;;;;;;5.80;2.50;;;;;;;1.67;72.92;98995.94;104907;1266;61139;-26
2024/02/02 06:34:59;;;;;;;8.90;2.10;;;;;;;1.44;74.15;99000.06;104820;1271;72437;-26
2024/02/02 06:43:40;;;;;;;13.10;2.50;;;;;;;2.16;71.58;98999.67;103091;1285;600230;-27
2024/02/02 06:46:09;;;;;;;10.10;2.80;;;;;;;2.00;72.18;99005.05;105067;1266;61143;-28
2024/02/02 06:48:37;;;;;;;6.60;2.60;;;;;;;1.96;72.20;99008.63;104896;1266;61286;-28
2024/02/02 06:51:05;;;;;;;9.30;2.30;;;;;;;1.70;73.31;99010.01;105050;1269;72259;-27
2024/02/02 06:53:33;;;;;;;8.50;2.50;;;;;;;1.64;73.89;99005.84;104845;1266;74949;-27
2024/02/02 06:56:02;;;;;;;4.60;2.60;;;;;;;1.67;74.18;99008.95;104874;1270;75483;-27
2024/02/02 06:58:43;;;;;;;5.70;2.30;;;;;;;2.16;72.46;99009.95;104711;1273;190638;-26
2024/02/02 07:01:11;;;;;;;7.00;2.80;;;;;;;2.35;71.31;99012.11;104793;1263;61062;-27
2024/02/02 07:03:38;;;;;;;7.90;2.50;;;;;;;2.41;71.18;99022.63;105031;1269;72216;-27
2024/02/02 07:06:07;;;;;;;14.10;2.60;;;;;;;2.30;71.33;99023.34;105158;1269;74459;-27
2024/02/02 07:08:35;;;;;;;9.10;3.10;;;;;;;2.15;72.04;99023.02;105416;1256;72638;-26
2024/02/02 07:11:12;;;;;;;7.80;2.90;;;;;;;1.92;72.91;99017.41;105637;1256;61162;-27
2024/02/02 07:13:45;;;;;;;7.80;2.90;;;;;;;1.88;73.15;99021.36;105599;1256;61059;-27
2024/02/02 07:16:14;;;;;;;11.50;3.50;;;;;;;1.78;73.70;99026.91;105366;1264;71779;-27
2024/02/02 07:18:42;;;;;;;8.70;2.50;;;;;;;2.29;72.09;99021.50;105547;1256;73094;-27
2024/02/02 07:21:12;;;;;;;5.00;3.00;;;;;;;2.67;70.67;99023.44;105361;1262;71466;-30
2024/02/02 07:23:41;;;;;;;10.40;2.90;;;;;;;2.38;71.20;99012.52;109067;1257;59027;-28
2024/02/02 07:26:18;;;;;;;8.30;2.90;;;;;;;2.37;71.25;99021.82;109306;1255;58865;-27
2024/02/02 07:28:46;;;;;;;10.80;3.10;;;;;;;2.04;72.64;99023.50;109143;1255;71810;-28
2024/02/02 07:31:36;;;;;;;7.20;2.90;;;;;;;1.96;73.21;99034.69;109169;1255;76445;-28
2024/02/02 07:34:42;;;;;;;13.10;2.80;;;;;;;1.91;73.27;99027.36;109048;1256;73982;-28
2024/02/02 07:37:20;;;;;;;7.60;3.00;;;;;;;1.99;73.76;99036.77;109059;1257;63157;-28
2024/02/02 07:39:48;;;;;;;5.20;1.90;;;;;;;2.58;71.28;99027.52;109053;1256;62258;-27
2024/02/02 07:42:16;;;;;;;10.50;2.60;;;;;;;2.76;70.66;99036.23;109128;1256;74438;-28
2024/02/02 07:44:44;;;;;;;12.50;3.00;;;;;;;2.58;71.09;99040.52;109094;1256;73838;-28
2024/02/02 07:47:12;;;;;;;11.10;2.70;;;;;;;2.24;72.25;99043.47;109103;1257;71567;-28
2024/02/02 07:49:39;;;;;;;9.90;3.00;;;;;;;2.05;72.75;99037.36;109089;1256;58912;-28
2024/02/02 07:52:07;;;;;;;11.20;3.50;;;;;;;1.99;73.75;99036.61;109154;1257;62234;-27
2024/02/02 07:54:35;;;;;;;6.40;3.00;;;;;;;2.14;73.56;99044.98;109124;1257;73072;-28
2024/02/02 07:57:03;;;;;;;7.80;2.60;;;;;;;2.11;73.27;99037.08;109070;1257;74276;-28
2024/02/02 07:59:30;;;;;;;6.20;2.10;;;;;;;2.48;71.64;99040.46;109113;1257;74934;-28
2024/02/02 08:01:58;;;;;;;9.10;3.30;;;;;;;2.93;70.78;99053.04;109056;1257;59705;-28
2024/02/02 08:04:26;;;;;;;13.50;2.80;;;;;;;2.56;71.21;99043.38;109071;1257;61069;-28
2024/02/02 08:06:54;;;;;;;12.20;3.20;;;;;;;2.51;71.73;99046.35;109123;1256;71837;-28
2024/02/02 08:09:21;;;;;;;11.90;5.30;;;;;;;2.63;71.67;99046.95;109132;1257;75561;-27
2024/02/02 08:11:49;;;;;;;8.20;3.30;;;;;;;2.51;71.99;99052.33;109099;1256;75062;-28
2024/02/02 08:14:17;;;;;;;13.60;3.30;;;;;;;2.24;72.25;99046.06;109112;1257;58816;-28
2024/02/02 08:16:45;;;;;;;8.10;2.10;;;;;;;2.28;72.77;99045.54;109104;1257;61048;-27
2024/02/02 08:19:12;;;;;;;10.30;3.20;;;;;;;2.96;71.16;99058.54;109124;1257;73009;-27
2024/02/02 08:21:40;;;;;;;6.10;2.40;;;;;;;3.10;69.42;99061.63;109100;1257;73058;-28
2024/02/02 08:24:08;;;;;;;14.60;3.80;;;;;;;2.94;69.15;99058.83;109124;1257;73037;-28
2024/02/02 08:26:36;;;;;;;15.30;3.50;;;;;;;2.88;69.84;99056.20;109037;1259;62445;-28
2024/02/02 08:29:04;;;;;;;9.20;2.90;;;;;;;2.78;70.32;99059.23;109128;1256;58839;-28
2024/02/02 08:31:31;;;;;;;13.50;2.90;;;;;;;2.85;69.85;99058.09;109106;1257;71729;-28
2024/02/02 08:33:59;;;;;;;6.50;2.30;;;;;;;3.01;69.56;99064.66;109109;1257;74400;-28
2024/02/02 08:36:27;;;;;;;8.90;2.70;;;;;;;3.11;68.92;99068.26;109008;1257;72671;-28
2024/02/02 08:38:54;;;;;;;11.80;3.40;;;;;;;2.72;70.02;99075.47;109104;1257;59256;-28
2024/02/02 08:41:22;;;;;;;20.40;3.10;;;;;;;2.95;70.17;99075.39;109119;1257;58829;-28
2024/02/02 08:43:50;;;;;;;11.30;3.30;;;;;;;3.14;69.93;99082.89;108991;1257;75430;-28
2024/02/02 08:46:19;;;;;;;7.60;2.60;;;;;;;3.04;69.25;99073.24;109096;1257;74510;-28
2024/02/02 08:48:48;;;;;;;8.40;2.80;;;;;;;3.16;68.87;99072.80;109066;1257;74764;-28
2024/02/02 08:51:22;;;;;;;8.80;2.10;;;;;;;2.99;69.54;99080.19;109045;1257;58802;-28
2024/02/02 08:54:00;;;;;;;9.60;2.60;;;;;;;3.00;69.21;99073.42;109084;1257;60023;-28
2024/02/02 08:56:27;;;;;;;10.40;2.50;;;;;;;2.91;69.03;99079.38;109040;1257;75328;-28
2024/02/02 08:58:56;;;;;;;10.90;2.80;;;;;;;3.12;69.63;99087.27;109080;1257;76610;-28
2024/02/02 09:01:40;;;;;;;11.50;3.10;;;;;;;3.24;69.33;99088.19;108998;1258;74117;-28
2024/02/02 09:04:38;;;;;;;12.60;3.50;;;;;;;2.99;69.67;99085.14;109030;1259;61501;-28
2024/02/02 09:07:09;;;;;;;11.40;2.80;;;;;;;3.04;69.19;99075.80;109100;1257;58953;-28
2024/02/02 09:09:37;;;;;;;8.00;2.20;;;;;;;3.19;69.12;99093.75;108944;1257;74347;-28
2024/02/02 09:12:04;;;;;;;9.00;2.40;;;;;;;2.98;68.60;99086.40;109098;1257;74537;-28
2024/02/02 09:14:32;;;;;;;8.00;2.30;;;;;;;2.70;69.74;99092.04;109014;1258;72121;-28
2024/02/02 09:17:00;;;;;;;8.40;2.90;;;;;;;2.85;70.15;99091.17;109070;1257;60356;-28
2024/02/02 09:19:42;;;;;;;10.90;3.30;;;;;;;2.91;69.82;99089.87;109100;1257;58862;-28
2024/02/02 09:22:11;;;;;;;10.30;3.00;;;;;;;3.02;69.13;99090.83;109088;1257;73951;-28
2024/02/02 09:24:47;;;;;;;11.20;2.80;;;;;;;2.67;69.06;99089.80;109003;1257;75599;-28
2024/02/02 09:27:32;;;;;;;8.30;2.60;;;;;;;2.92;69.44;99096.45;109043;1257;74920;-27
2024/02/02 09:30:00;;;;;;;7.40;2.40;;;;;;;2.96;69.09;99088.75;109035;1257;61615;-28
2024/02/02 09:32:28;;;;;;;11.80;3.10;;;;;;;2.99;68.63;99089.11;109058;1259;60668;-28
2024/02/02 09:35:00;;;;;;;13.40;3.20;;;;;;;3.10;68.67;99086.86;109082;1258;74093;-28
2024/02/02 09:37:36;;;;;;;13.40;2.80;;;;;;;3.22;68.50;99096.69;109009;1258;76700;-27
2024/02/02 09:40:40;;;;;;;7.80;2.40;;;;;;;3.37;67.79;99087.23;108929;1258;74967;-28
2024/02/02 09:43:17;;;;;;;7.70;2.30;;;;;;;3.35;67.95;99085.79;108871;1262;61566;-28
2024/02/02 09:45:59;;;;;;;5.40;2.40;;;;;;;3.24;67.78;99081.54;109044;1259;60007;-28
2024/02/02 09:48:47;;;;;;;6.50;2.70;;;;;;;3.61;67.85;99090.11;108987;1258;75414;-28
2024/02/02 09:51:27;;;;;;;9.40;2.90;;;;;;;3.55;66.92;99079.05;108974;1259;75567;-28
2024/02/02 09:54:17;;;;;;;10.40;2.90;;;;;;;3.28;67.89;99093.16;108938;1258;73689;-28
2024/02/02 09:56:48;;;;;;;12.50;3.30;;;;;;;3.57;67.38;99085.69;109053;1258;58862;-28
2024/02/02 09:59:29;;;;;;;8.70;2.40;;;;;;;3.04;68.76;99089.36;108983;1258;61052;-28
2024/02/02 10:02:12;;;;;;;9.20;2.70;;;;;;;3.06;69.09;99087.89;108932;1258;73856;-29
2024/02/02 10:04:55;;;;;;;11.80;2.80;;;;;;;3.02;68.19;99082.08;108964;1258;73723;-28
2024/02/02 10:07:35;;;;;;;6.50;2.20;;;;;;;2.93;69.48;99087.34;108984;1258;72108;-28
2024/02/02 10:10:52;;;;;;;12.30;3.20;;;;;;;3.31;68.04;99084.60;109026;1263;58934;-28
2024/02/02 10:13:52;;;;;;;9.00;2.70;;;;;;;3.42;66.96;99078.71;108586;1265;58811;-27
2024/02/02 10:16:30;;;;;;;10.10;3.10;;;;;;;3.62;66.56;99090.22;108656;1264;73057;-28
2024/02/02 10:19:25;;;;;;;11.80;3.90;;;;;;;3.71;67.24;99087.33;108553;1264;74377;-28
2024/02/02 10:22:35;;;;;;;11.90;3.40;;;;;;;3.31;67.63;99081.13;108660;1264;74972;-27
2024/02/02 10:25:25;;;;;;;11.60;3.70;;;;;;;3.26;68.13;99075.92;108698;1265;58790;-28
2024/02/02 10:28:01;;;;;;;11.10;3.50;;;;;;;3.00;68.96;99083.05;108614;1265;61225;-27
2024/02/02 10:30:39;;;;;;;13.70;3.20;;;;;;;3.16;68.94;99082.43;108511;1264;74175;-28
2024/02/02 10:33:49;;;;;;;9.30;2.90;;;;;;;3.10;69.63;99075.17;108531;1266;74591;-27
2024/02/02 10:36:32;;;;;;;6.90;3.20;;;;;;;3.24;68.56;99071.71;108214;1266;75153;-27
2024/02/02 10:39:45;;;;;;;4.80;2.20;;;;;;;3.67;67.80;99092.91;108539;1266;62388;-28
2024/02/02 10:43:00;;;;;;;9.40;2.50;;;;;;;3.68;67.08;99083.55;108677;1266;62380;-27
2024/02/02 10:45:41;;;;;;;10.90;3.20;;;;;;;3.52;67.74;99092.44;108941;1259;75358;-27
2024/02/02 10:48:14;;;;;;;7.90;3.40;;;;;;;3.34;68.43;99096.11;108967;1259;76588;-28
2024/02/02 10:51:25;;;;;;;9.80;3.20;;;;;;;3.39;67.68;99094.14;108836;1258;74092;-28
2024/02/02 10:54:51;;;;;;;8.00;3.20;;;;;;;3.20;68.57;99098.02;108642;1263;59129;-27
2024/02/02 10:57:28;;;;;;;8.00;2.70;;;;;;;3.37;68.31;99089.48;108250;1269;62135;-28
2024/02/02 11:00:11;;;;;;;12.40;3.10;;;;;;;3.60;67.34;99080.01;108453;1266;74118;-27
2024/02/02 11:03:21;;;;;;;8.90;2.50;;;;;;;3.97;65.86;99088.55;108508;1268;75770;-27
2024/02/02 11:05:55;;;;;;;10.50;3.00;;;;;;;4.07;64.74;99089.95;108238;1266;74867;-27
2024/02/02 11:08:24;;;;;;;11.30;2.70;;;;;;;3.98;64.44;99086.13;108467;1266;61574;-27
2024/02/02 11:11:05;;;;;;;8.90;3.10;;;;;;;3.90;65.05;99085.17;108283;1266;60125;-28
2024/02/02 11:13:51;;;;;;;16.00;3.00;;;;;;;3.88;65.32;99072.04;108495;1266;76210;-27
2024/02/02 11:17:10;;;;;;;9.90;3.40;;;;;;;3.67;66.01;99083.41;108836;1262;75561;-27
2024/02/02 11:19:51;;;;;;;7.50;3.00;;;;;;;3.27;67.44;99081.73;108584;1262;72164;-28
2024/02/02 11:22:30;;;;;;;11.70;3.00;;;;;;;3.32;67.41;99078.16;108698;1262;59453;-28
2024/02/02 11:25:11;;;;;;;7.00;2.20;;;;;;;3.34;66.87;99077.73;108523;1262;61674;-27
2024/02/02 11:27:48;;;;;;;10.50;3.10;;;;;;;3.51;67.52;99086.35;108821;1255;76409;-28
2024/02/02 11:30:21;;;;;;;10.60;3.00;;;;;;;3.67;66.52;99074.85;109244;1256;76770;-27
2024/02/02 11:33:03;;;;;;;6.40;2.50;;;;;;;3.96;65.70;99086.70;109064;1256;73297;-27
2024/02/02 11:35:40;;;;;;;5.30;2.50;;;;;;;4.27;64.40;99089.35;109236;1256;62565;-27
2024/02/02 11:38:14;;;;;;;10.80;2.70;;;;;;;4.00;64.11;99067.48;109137;1256;60919;-28
2024/02/02 11:40:42;;;;;;;9.10;2.80;;;;;;;3.76;64.88;99075.95;109078;1256;75532;-27
2024/02/02 11:43:10;;;;;;;7.20;2.30;;;;;;;3.91;65.20;99082.54;108955;1256;75165;-27
2024/02/02 11:45:42;;;;;;;11.60;3.10;;;;;;;4.04;65.02;99080.30;109083;1256;72856;-27
2024/02/02 11:48:16;;;;;;;10.60;2.20;;;;;;;3.81;65.38;99071.91;108879;1257;61444;-28
2024/02/02 11:50:44;;;;;;;7.90;2.80;;;;;;;3.59;65.74;99063.95;109092;1256;59604;-27
2024/02/02 11:53:26;;;;;;;7.90;2.50;;;;;;;3.58;65.89;99069.84;109055;1256;75089;-27
2024/02/02 11:55:58;;;;;;;10.50;2.90;;;;;;;3.49;66.65;99059.67;109030;1256;74454;-28
2024/02/02 11:58:26;;;;;;;9.60;2.80;;;;;;;3.19;68.25;99066.31;109062;1256;75154;-27
2024/02/02 12:00:57;;;;;;;12.00;2.90;;;;;;;3.79;67.11;99064.77;109027;1256;61711;-28
2024/02/02 12:04:19;;;;;;;4.80;1.90;;;;;;;3.94;65.74;99058.31;109052;1256;58731;-28
2024/02/02 12:07:11;;;;;;;10.60;2.40;;;;;;;4.27;64.23;99044.34;108753;1262;74101;-28
2024/02/02 12:09:46;;;;;;;11.80;3.20;;;;;;;4.18;65.25;99056.04;109041;1256;75538;-28
2024/02/02 12:12:17;;;;;;;14.10;2.60;;;;;;;3.95;65.47;99054.83;109003;1256;73717;-28
2024/02/02 12:14:49;;;;;;;11.40;2.30;;;;;;;3.96;65.35;99054.12;109008;1256;60373;-27
2024/02/02 12:17:17;;;;;;;8.70;2.20;;;;;;;3.83;66.76;99055.98;109041;1256;59692;-27
2024/02/02 12:19:45;;;;;;;10.00;2.50;;;;;;;3.71;66.99;99044.94;109047;1256;74916;-28
2024/02/02 12:22:14;;;;;;;9.60;2.80;;;;;;;3.63;66.22;99038.84;109031;1256;76657;-27
2024/02/02 12:24:42;;;;;;;4.30;1.70;;;;;;;3.58;67.06;99035.16;109050;1256;74914;-27
2024/02/02 12:27:09;;;;;;;8.30;2.20;;;;;;;3.65;67.80;99046.64;108985;1263;61702;-27
2024/02/02 12:29:37;;;;;;;5.20;1.70;;;;;;;4.23;66.11;99049.88;109031;1259;60686;-28
2024/02/02 12:32:06;;;;;;;8.20;2.80;;;;;;;4.35;64.67;99046.14;109087;1258;75050;-28
2024/02/02 12:34:35;;;;;;;4.50;2.20;;;;;;;4.49;64.47;99049.51;109012;1257;75480;-27
2024/02/02 12:37:04;;;;;;;10.10;2.40;;;;;;;4.40;64.51;99047.23;108985;1257;72189;-27
2024/02/02 12:39:36;;;;;;;8.10;2.30;;;;;;;4.34;64.93;99044.45;109041;1257;61830;-27
2024/02/02 12:42:06;;;;;;;6.10;1.90;;;;;;;4.21;64.98;99040.91;109067;1256;60087;-27
2024/02/02 12:44:34;;;;;;;7.30;2.20;;;;;;;4.05;65.13;99032.67;109148;1257;73937;-28
2024/02/02 12:47:06;;;;;;;7.30;2.00;;;;;;;4.01;65.04;99032.02;109159;1257;75278;-27
2024/02/02 12:49:36;;;;;;;5.50;2.20;;;;;;;3.92;65.67;99042.82;109077;1257;72499;-28
2024/02/02 12:52:06;;;;;;;12.40;2.80;;;;;;;3.66;65.92;99033.53;109060;1256;58733;-27
2024/02/02 12:54:34;;;;;;;5.10;2.10;;;;;;;3.55;66.38;99034.64;109111;1256;61082;-27
2024/02/02 12:57:03;;;;;;;11.10;2.70;;;;;;;3.53;66.56;99034.23;109195;1257;76147;-28
2024/02/02 12:59:31;;;;;;;4.40;2.20;;;;;;;3.84;65.40;99039.27;109145;1257;75069;-27
2024/02/02 13:01:59;;;;;;;10.10;2.50;;;;;;;4.27;64.48;99054.80;109084;1257;72561;-28
2024/02/02 13:04:27;;;;;;;7.60;2.30;;;;;;;4.33;63.81;99054.51;109091;1257;60761;-28
2024/02/02 13:06:55;;;;;;;4.60;1.70;;;;;;;4.22;64.10;99057.16;109188;1256;60500;-28
2024/02/02 13:09:26;;;;;;;4.20;2.00;;;;;;;4.03;65.08;99048.21;109204;1261;73469;-27
2024/02/02 13:11:57;;;;;;;8.10;2.20;;;;;;;3.94;65.16;99041.52;109159;1257;75414;-27
2024/02/02 13:14:34;;;;;;;6.40;1.90;;;;;;;3.76;65.26;99035.39;109059;1256;73559;-28
2024/02/02 13:17:08;;;;;;;4.90;1.80;;;;;;;3.71;65.76;99036.03;109108;1257;59467;-28
2024/02/02 13:19:45;;;;;;;9.10;2.30;;;;;;;3.73;65.97;99035.41;109115;1255;61146;-27
2024/02/02 13:22:20;;;;;;;8.00;2.70;;;;;;;3.63;66.17;99024.41;109098;1257;76127;-28
2024/02/02 13:24:53;;;;;;;5.00;1.90;;;;;;;3.90;65.77;99034.30;109095;1257;75101;-27
2024/02/02 13:27:22;;;;;;;6.20;2.40;;;;;;;4.24;64.18;99028.88;109067;1257;72273;-28
2024/02/02 13:29:56;;;;;;;4.60;1.90;;;;;;;4.41;63.74;99034.64;109059;1256;59864;-27
2024/02/02 13:32:29;;;;;;;5.70;2.40;;;;;;;4.28;64.17;99031.59;109013;1257;61144;-28
2024/02/02 13:35:00;;;;;;;6.30;2.10;;;;;;;4.10;64.49;99033.77;109012;1257;74797;-28
2024/02/02 13:37:36;;;;;;;5.20;2.00;;;;;;;3.88;64.91;99030.14;109017;1257;75701;-28
2024/02/02 13:40:09;;;;;;;5.30;1.90;;;;;;;3.73;64.96;99028.53;109040;1257;73767;-28
2024/02/02 13:42:40;;;;;;;8.60;2.60;;;;;;;3.62;65.33;99025.51;109080;1257;58941;-27
2024/02/02 13:45:11;;;;;;;8.30;2.50;;;;;;;3.42;65.69;99024.13;109104;1257;63790;-27
2024/02/02 13:47:41;;;;;;;6.10;2.10;;;;;;;3.39;65.44;99018.10;109108;1257;75783;-28
2024/02/02 13:50:30;;;;;;;6.10;2.00;;;;;;;3.24;65.59;99016.82;109067;1257;76253;-28
2024/02/02 13:53:05;;;;;;;6.90;1.90;;;;;;;3.62;64.72;99020.52;109010;1257;73704;-27
2024/02/02 13:55:37;;;;;;;6.90;2.10;;;;;;;3.86;63.37;99028.16;108936;1259;62028;-28
2024/02/02 13:58:08;;;;;;;7.20;2.50;;;;;;;3.81;63.09;99032.03;109043;1257;61201;-28
2024/02/02 14:00:37;;;;;;;8.60;2.60;;;;;;;3.65;63.65;99029.99;108994;1257;76160;-27
2024/02/02 14:03:09;;;;;;;10.30;2.00;;;;;;;3.69;63.57;99038.01;109026;1257;75354;-27
2024/02/02 14:05:41;;;;;;;4.70;1.60;;;;;;;3.39;63.96;99022.94;109035;1257;73776;-27
2024/02/02 14:08:11;;;;;;;7.70;2.50;;;;;;;3.12;64.36;99033.54;108965;1257;61603;-27
2024/02/02 14:10:46;;;;;;;8.30;2.00;;;;;;;3.13;64.57;99033.86;108951;1258;61886;-28
2024/02/02 14:13:21;;;;;;;8.80;3.20;;;;;;;3.18;64.40;99033.94;109101;1258;76120;-27
2024/02/02 14:15:55;;;;;;;8.80;2.30;;;;;;;3.08;64.68;99042.38;108982;1257;75015;-27
2024/02/02 14:18:24;;;;;;;5.80;2.30;;;;;;;3.12;64.91;99040.58;109002;1257;72098;-28
2024/02/02 14:20:55;;;;;;;3.90;1.70;;;;;;;3.28;64.99;99042.38;109009;1257;62108;-27
2024/02/02 14:23:25;;;;;;;11.30;2.80;;;;;;;3.71;63.22;99038.95;108926;1257;61510;-27
2024/02/02 14:26:05;;;;;;;17.30;2.40;;;;;;;3.71;62.84;99038.62;109011;1257;76574;-28
2024/02/02 14:28:35;;;;;;;5.40;2.20;;;;;;;3.68;62.75;99045.26;109044;1263;75515;-27
2024/02/02 14:31:06;;;;;;;9.40;2.60;;;;;;;3.58;62.78;99040.67;109056;1257;76286;-28
2024/02/02 14:40:24;;;;;;;12.50;2.30;;;;;;;3.21;64.29;99032.60;102732;1293;600261;-27